Horn Island Airport
YHID : now visible

Airfield :











YOU CAN JOIN US ON...

 
LOGIN :

Register | Disclaimer

   EN    FR    IT 

 









Legend :    VFR   Marginal VFR   IFR   Intensive IFR   Very Intensive IFR
Visi :
Ceiling :
>= 8 km
>= 3000ft
5 to 8 km
1000 to 3000 ft
1500m to 5 km
500 to 1000 ft
800 to 1500m
200 to 500 ft
< 800m
< 200 ft
Symbols :   Thunderstorms  Fog  Heavy snow  Heavy precipitations  Wind > 20 kt






- Airport Elevation : 43 ft
- IATA code : HID


YHID - Horn Island

CURRENT METAR :
  • 271330Z AUTO 30008KT 7000 // BKN014 BKN023 BKN047 26/25 Q1005

EXPIRED METARs :
  • 271313Z AUTO 31006KT 9999 // SCT021 SCT052 BKN070 26/24 Q1005 RETS
  • 271300Z AUTO 31009KT 5000 TSRA SCT027 SCT052 BKN063 26/24 Q1005
  • 271200Z AUTO 31010KT 9999 // BKN056 BKN068 27/24 Q1005
  • 271100Z AUTO 31007KT 9999 // SCT017 28/25 Q1004

TAF AMD TAF YHID
Valid from the 26 at 18:00 until the 27 at 18:00 UTC


261716Z 2618/2718 32012KT 9999 -SHRA SCT015 BKN030
FM262200 31018KT 9999 -SHRA SCT015
FM271000 30014KT 9999 -SHRA SCT015 BKN030 INTER 2619/2623 2000 SHRA BKN006 INTER 2709/2718 2000 SHRA BKN006
PROB30
TEMPO 2619/2622 VRB25G35KT 0500 TSRA BKN005 SCT020CB
YBBB FIR / Oceania



MET'MAP, your aeronautical weather chart ! - Copyright ORBIFLY December 2007 - Disclaimer

ORBIFLY MET'MAP TEAM :

Programming & Development : Alexandra Zaïnal
Concept & original design : Baudouin d'Aumeries
Assistance for programming : Marc-Olivier Méhu
Technical & hardware support : Manuel Goepfert

Contact : metmap@orbifly.com




SOURCES & CREDITS :

   NOAA       Earth
Advisory